LNG Dream — C6VO5 — position and weather

sailwx.info

Track history (hours):
 
Tides and Currents Weather Stations Pressure Air Temp Water Temp Dewpoint Dewpoint Depression Visibility Wind Speed Wind Dir Waves Ship Positions

LNG Dream

Last reported at 2017-Dec-08 06:39 UTC. Time now 2017-Dec-14 13:02 UTC.
Position N 33°40' E 134°55'.

Length 289.6 m; beam 49 m.

Type: Ship (hazmat cat A). MMSI: 309065000.

Date/timePositionNaut miles runAvg speedWind from/ knotsBaromVisibWave heightAir tempDewpointWater temp
2017-Dec-08 06:39N 33°40' E 134°55'214.2
2017-Dec-08 06:29N 33°42' E 134°54'714.0
2017-Dec-08 06:00N 33°49' E 134°54'714.1
2017-Dec-08 05:30N 33°56' E 134°55'714.3
2017-Dec-08 05:01N 34°03' E 134°57'714.8
2017-Dec-08 04:30N 34°10' E 134°57'612.0
2017-Dec-08 04:00N 34°16' E 134°58'611.8
2017-Dec-08 03:30N 34°22' E 135°00'612.5
2017-Dec-08 03:00N 34°26' E 135°06'613.0
2017-Dec-08 02:30N 34°29' E 135°13'612.8
2017-Dec-08 02:00N 34°33' E 135°19'5 9.8
2017-Dec-08 01:30N 34°33' E 135°25'0 0.5
2017-Dec-08 01:00N 34°33' E 135°25'0 0.0
2017-Dec-07 01:50N 34°33' E 135°25'0 0.0
2017-Dec-07 01:30N 34°33' E 135°25'0 0.7
2017-Dec-07 01:00N 34°33' E 135°25'3 6.0
2017-Dec-07 00:30N 34°33' E 135°21'611.8
2017-Dec-07 00:01N 34°31' E 135°14'714.1
2017-Dec-06 23:31N 34°27' E 135°07'714.4
2017-Dec-06 23:00N 34°21' E 135°02'714.5
2017-Dec-06 22:30N 34°14' E 134°59'510.8
2017-Dec-06 22:01N 34°09' E 134°59'612.4
2017-Dec-06 21:31N 34°03' E 134°60'5 9.5
2017-Dec-06 21:00N 33°58' E 134°59'  
Track history (hours):
 
Tides and Currents Weather Stations Pressure Air Temp Water Temp Dewpoint Dewpoint Depression Visibility Wind Speed Wind Dir Waves Ship Positions

LNG Dream

Last reported at 2017-Dec-08 06:39 UTC. Time now 2017-Dec-14 13:02 UTC.
Position N 33°40' E 134°55'.

Length 289.6 m; beam 49 m.

Type: Ship (hazmat cat A). MMSI: 309065000.

Date/timePositionNaut miles runAvg speedWind from/ knotsBaromVisibWave heightAir tempDewpointWater temp
2017-Dec-08 06:39N 33°40' E 134°55'214.2
2017-Dec-08 06:29N 33°42' E 134°54'714.0
2017-Dec-08 06:00N 33°49' E 134°54'714.1
2017-Dec-08 05:30N 33°56' E 134°55'714.3
2017-Dec-08 05:01N 34°03' E 134°57'714.8
2017-Dec-08 04:30N 34°10' E 134°57'612.0
2017-Dec-08 04:00N 34°16' E 134°58'611.8
2017-Dec-08 03:30N 34°22' E 135°00'612.5
2017-Dec-08 03:00N 34°26' E 135°06'613.0
2017-Dec-08 02:30N 34°29' E 135°13'612.8
2017-Dec-08 02:00N 34°33' E 135°19'5 9.8
2017-Dec-08 01:30N 34°33' E 135°25'0 0.5
2017-Dec-08 01:00N 34°33' E 135°25'0 0.0
2017-Dec-07 01:50N 34°33' E 135°25'0 0.0
2017-Dec-07 01:30N 34°33' E 135°25'0 0.7
2017-Dec-07 01:00N 34°33' E 135°25'3 6.0
2017-Dec-07 00:30N 34°33' E 135°21'611.8
2017-Dec-07 00:01N 34°31' E 135°14'714.1
2017-Dec-06 23:31N 34°27' E 135°07'714.4
2017-Dec-06 23:00N 34°21' E 135°02'714.5
2017-Dec-06 22:30N 34°14' E 134°59'510.8
2017-Dec-06 22:01N 34°09' E 134°59'612.4
2017-Dec-06 21:31N 34°03' E 134°60'5 9.5
2017-Dec-06 21:00N 33°58' E 134°59'  

Dump ship's entire track history